SAMR/AFA METAR and TAF weather

Enter ICAO airport designator
Station Type Date Time Source
SAMR METAR 2021/09/03 12:26 UTC NOAA

SAMR 031226Z 00000KT 5000 BR OVC010 10/10 Q1018


Station Type Date Time Source
SAMR Decoded METAR 2021/09/03 12:26 UTC NOAA

San Rafael Aerodrome, Argentina (SAMR) 34-35S 068-24W 748M
Sep 03, 2021 - 08:26 AM EDT / 2021.09.03 1226 UTC
Wind: Calm:0
Visibility: 3 mile(s):0
Sky conditions: overcast
Weather: mist
Temperature: 50 F (10 C)
Dew Point: 50 F (10 C)
Relative Humidity: 100%
Pressure (altimeter): 30.06 in. Hg (1018 hPa)
ob: SAMR 031226Z 00000KT 5000 BR OVC010 10/10 Q1018
cycle: 12

Station Type Date Time Source
SAMR TAF 2021/08/29 06:21 UTC NOAA

TAF SAMR 290500Z 2906/3006 27005KT CAVOK TX26/2920Z TN07/2911Z
BECMG 2914/2916 05010KT
BECMG 3002/3004 29005KT

Example: see airport list